Time;durP1;ratioP1;P1;durP2;ratioP2;P2;SDS_P1;SDS_P2;PMS_P1;PMS_P2;Temp;Humidity;BMP_temperature;BMP_pressure;BME280_temperature;BME280_humidity;BME280_pressure;Samples;Min_cycle;Max_cycle;Signal;HPM_P1;HPM_P2
2022/09/28 00:00:38;;;;;;;;;1.00;1.00;;;;;16.16;75.35;100149.69;5038623;28;45464;-72
2022/09/28 00:03:05;;;;;;;;;0.00;0.00;;;;;16.08;75.33;100121.56;5038388;28;45583;-73
2022/09/28 00:05:31;;;;;;;;;0.33;0.33;;;;;16.14;75.22;100133.00;5037948;28;46098;-72
2022/09/28 00:07:57;;;;;;;;;0.33;0.33;;;;;16.17;75.49;100141.78;5038519;28;45416;-73
2022/09/28 00:10:23;;;;;;;;;0.00;0.00;;;;;15.60;75.17;100030.22;5036970;28;45465;-72
2022/09/28 00:12:49;;;;;;;;;0.67;0.00;;;;;16.12;75.14;100119.81;5038444;28;45464;-77
2022/09/28 00:15:15;;;;;;;;;1.00;1.00;;;;;16.08;75.38;100087.31;5037910;28;45524;-77
2022/09/28 00:17:43;;;;;;;;;1.00;0.00;;;;;16.14;76.10;100101.41;5038099;28;45679;-72
2022/09/28 00:20:09;;;;;;;;;0.00;0.00;;;;;16.14;75.76;100098.75;5051634;28;45453;-72
2022/09/28 00:22:34;;;;;;;;;2.00;2.00;;;;;16.23;75.69;100081.16;5052877;28;45530;-72
2022/09/28 00:25:00;;;;;;;;;1.00;1.00;;;;;16.19;75.83;100075.91;5050406;28;48184;-71
2022/09/28 00:27:25;;;;;;;;;0.00;0.00;;;;;16.22;75.93;100079.41;5049634;28;45449;-72
2022/09/28 00:29:51;;;;;;;;;3.00;1.67;;;;;16.24;76.81;100075.03;5036504;28;45394;-72
2022/09/28 00:32:20;;;;;;;;;3.00;1.67;;;;;15.76;76.30;99994.25;5038055;28;45470;-72
2022/09/28 00:34:47;;;;;;;;;1.00;1.00;;;;;16.18;76.83;100069.75;5037059;28;45469;-71
2022/09/28 00:37:13;;;;;;;;;1.00;1.00;;;;;16.09;77.11;100061.84;5037707;28;45388;-71
2022/09/28 00:39:43;;;;;;;;;1.00;1.00;;;;;16.21;76.88;100071.50;5038153;28;45394;-71
2022/09/28 00:42:28;;;;;;;;;2.00;2.00;;;;;16.30;77.04;100088.19;5052111;28;45523;-77
2022/09/28 00:44:56;;;;;;;;;1.00;1.00;;;;;16.16;76.61;100062.75;5037651;28;46619;-71
2022/09/28 00:47:33;;;;;;;;;0.00;0.00;;;;;16.28;77.16;100089.94;5037319;28;46083;-71
2022/09/28 00:50:13;;;;;;;;;1.00;1.00;;;;;16.25;76.84;100075.88;5037670;28;45321;-72
2022/09/28 00:52:45;;;;;;;;;1.00;1.00;;;;;16.39;77.61;100102.25;5038078;28;45417;-71
2022/09/28 00:55:22;;;;;;;;;0.00;0.00;;;;;16.26;77.55;100069.75;5036175;28;45760;-71
2022/09/28 00:57:54;;;;;;;;;1.00;1.00;;;;;16.33;77.66;100084.66;5030802;28;45473;-71
2022/09/28 01:00:20;;;;;;;;;1.67;1.67;;;;;16.33;78.20;100084.66;5037491;28;45517;-71
2022/09/28 01:02:47;;;;;;;;;1.33;0.00;;;;;16.32;78.40;100084.69;5037613;28;45457;-72
2022/09/28 01:05:13;;;;;;;;;0.67;0.67;;;;;16.36;78.40;100081.16;5037378;28;46204;-77
2022/09/28 01:07:41;;;;;;;;;1.00;1.00;;;;;16.39;77.79;100075.88;5027587;28;45419;-71
2022/09/28 01:10:07;;;;;;;;;1.00;1.00;;;;;16.39;79.06;100086.41;5036409;28;45517;-72
2022/09/28 01:12:33;;;;;;;;;1.00;0.00;;;;;16.39;79.16;100086.41;5037652;28;45633;-71
2022/09/28 01:15:00;;;;;;;;;0.00;0.00;;;;;16.44;78.97;100096.09;5037309;28;45826;-71
2022/09/28 01:17:34;;;;;;;;;1.00;1.00;;;;;16.40;79.39;100091.69;5037734;28;45205;-71
2022/09/28 01:20:17;;;;;;;;;1.00;1.00;;;;;16.53;78.79;100105.72;5037134;28;45440;-71
2022/09/28 01:23:14;;;;;;;;;0.00;0.00;;;;;16.55;78.99;100106.59;5037833;28;45375;-76
2022/09/28 01:26:14;;;;;;;;;1.00;1.00;;;;;16.55;79.03;100088.16;5037140;28;46507;-71
2022/09/28 01:28:43;;;;;;;;;1.00;1.00;;;;;16.58;79.22;100092.56;4994815;28;45525;-70
2022/09/28 01:31:14;;;;;;;;;1.33;0.00;;;;;16.54;79.39;100072.34;5029101;28;45506;-77
2022/09/28 01:33:51;;;;;;;;;0.67;0.00;;;;;16.42;79.65;100063.56;5037307;28;45459;-71
2022/09/28 01:36:26;;;;;;;;;1.33;1.00;;;;;16.55;79.08;100074.97;5035477;28;46810;-71
2022/09/28 01:39:00;;;;;;;;;1.00;1.00;;;;;16.48;79.38;100060.94;5036517;28;45260;-71
2022/09/28 01:41:30;;;;;;;;;0.00;0.00;;;;;16.50;79.26;100048.63;5036957;28;45426;-71
2022/09/28 01:44:01;;;;;;;;;0.00;0.00;;;;;16.51;79.70;100052.13;5034093;28;45628;-71
2022/09/28 01:46:38;;;;;;;;;0.67;0.67;;;;;16.52;79.78;100045.97;5036827;28;45625;-71
2022/09/28 01:49:17;;;;;;;;;0.00;0.00;;;;;16.42;79.82;100034.56;5035167;28;45379;-71
2022/09/28 01:51:52;;;;;;;;;1.00;0.00;;;;;16.57;80.31;100064.41;5037668;28;45516;-72
2022/09/28 01:54:44;;;;;;;;;0.00;0.00;;;;;16.56;80.53;100070.59;5036718;28;45382;-71
2022/09/28 01:57:17;;;;;;;;;0.67;0.00;;;;;16.58;80.21;100067.06;5031153;28;46218;-71
2022/09/28 01:59:52;;;;;;;;;0.00;0.00;;;;;16.48;80.20;100052.16;5035382;28;45446;-72
2022/09/28 02:02:24;;;;;;;;;0.00;0.00;;;;;16.53;80.19;100045.09;5032492;28;45359;-71
2022/09/28 02:04:56;;;;;;;;;0.00;0.00;;;;;16.59;80.43;100060.03;5036212;28;45435;-70
2022/09/28 02:07:44;;;;;;;;;0.00;0.00;;;;;16.61;80.06;100051.25;5036138;28;45828;-71
2022/09/28 02:10:15;;;;;;;;;0.33;0.33;;;;;16.29;80.34;99998.56;5036825;28;46111;-72
2022/09/28 02:12:58;;;;;;;;;0.00;0.00;;;;;16.55;80.12;100024.00;5036331;28;45347;-71
2022/09/28 02:15:34;;;;;;;;;0.00;0.00;;;;;16.54;80.16;100022.25;5036546;28;45434;-71
2022/09/28 02:17:59;;;;;;;;;0.33;0.00;;;;;16.59;79.92;100016.09;5028063;28;45627;-71
2022/09/28 02:20:25;;;;;;;;;0.00;0.00;;;;;16.55;80.43;100016.97;5036285;28;45560;-71
2022/09/28 02:22:55;;;;;;;;;0.67;0.00;;;;;16.47;79.82;100009.09;5036002;28;45446;-71
2022/09/28 02:25:39;;;;;;;;;0.00;0.00;;;;;16.63;80.55;100044.22;5050038;28;45501;-71
2022/09/28 02:28:06;;;;;;;;;1.67;1.00;;;;;16.64;80.78;100024.84;5035759;28;46705;-71
2022/09/28 02:30:36;;;;;;;;;2.00;0.00;;;;;16.61;80.92;100026.63;5035980;28;45414;-71
2022/09/28 02:33:19;;;;;;;;;0.00;0.00;;;;;16.58;80.88;100003.78;5036095;28;45411;-71
2022/09/28 02:35:45;;;;;;;;;1.00;1.00;;;;;16.64;81.08;100016.06;5033899;28;45430;-71
2022/09/28 02:38:12;;;;;;;;;0.00;0.00;;;;;16.64;80.74;100008.16;5035796;28;45429;-72
2022/09/28 02:40:38;;;;;;;;;0.00;0.00;;;;;16.62;80.64;100002.88;5036421;28;45347;-71
2022/09/28 02:43:10;;;;;;;;;0.33;0.00;;;;;16.75;80.72;100029.19;5036034;28;45451;-71
2022/09/28 02:45:48;;;;;;;;;0.67;0.33;;;;;16.76;81.12;100034.47;5036213;28;45627;-72
2022/09/28 02:48:36;;;;;;;;;0.33;0.33;;;;;16.79;80.82;100023.94;5036007;28;45594;-71
2022/09/28 02:51:13;;;;;;;;;0.00;0.00;;;;;16.80;80.65;100023.03;5033775;28;45465;-73
2022/09/28 02:54:06;;;;;;;;;1.00;0.00;;;;;16.77;81.09;100024.81;5035899;28;45531;-72
2022/09/28 02:56:51;;;;;;;;;1.00;0.00;;;;;16.81;80.72;100022.19;5035816;28;45673;-71
2022/09/28 02:59:28;;;;;;;;;0.67;0.67;;;;;16.85;80.37;100015.13;5036505;28;45446;-71
2022/09/28 03:02:00;;;;;;;;;1.00;1.00;;;;;16.83;80.67;100023.06;5051832;28;46074;-71
2022/09/28 03:04:55;;;;;;;;;0.67;0.00;;;;;16.86;80.26;100019.53;5036477;28;45341;-71
2022/09/28 03:07:34;;;;;;;;;0.00;0.00;;;;;16.87;80.37;100026.53;5036111;28;45585;-71
2022/09/28 03:10:07;;;;;;;;;0.33;0.00;;;;;16.89;79.85;100016.88;5034945;28;46208;-71
2022/09/28 03:12:35;;;;;;;;;0.00;0.00;;;;;16.79;79.74;99992.28;5034654;28;45543;-72
2022/09/28 03:15:27;;;;;;;;;0.00;0.00;;;;;16.89;79.73;100012.50;5034717;28;45505;-78
2022/09/28 03:17:53;;;;;;;;;0.00;0.00;;;;;16.82;79.49;99997.56;5039691;28;45443;-72
2022/09/28 03:20:19;;;;;;;;;0.00;0.00;;;;;16.96;79.37;100005.41;5051488;28;46438;-71
2022/09/28 03:22:45;;;;;;;;;0.00;0.00;;;;;16.99;79.48;100005.41;5019740;28;45870;-77
2022/09/28 03:25:11;;;;;;;;;1.00;0.00;;;;;16.92;79.35;99993.13;5039199;28;45415;-76
2022/09/28 03:27:37;;;;;;;;;0.00;0.00;;;;;17.00;79.14;99995.72;5038612;28;45614;-71
2022/09/28 03:30:03;;;;;;;;;1.33;0.33;;;;;17.01;79.42;99986.91;5037434;28;46290;-77
2022/09/28 03:32:29;;;;;;;;;0.67;0.00;;;;;16.92;79.37;99966.75;5038616;28;45401;-71
2022/09/28 03:34:55;;;;;;;;;0.00;0.00;;;;;16.96;79.19;99967.59;5054982;28;45563;-72
2022/09/28 03:37:21;;;;;;;;;0.00;0.00;;;;;16.97;79.30;99972.88;5036918;28;45592;-71
2022/09/28 03:39:47;;;;;;;;;1.00;0.00;;;;;16.99;79.56;99971.09;5030919;28;46009;-71
2022/09/28 03:42:12;;;;;;;;;1.00;0.67;;;;;16.90;79.58;99969.38;5028628;28;45451;-71
2022/09/28 03:44:38;;;;;;;;;2.33;0.33;;;;;16.99;80.27;99972.84;5028896;28;45556;-71
2022/09/28 03:47:03;;;;;;;;;1.00;0.00;;;;;16.94;81.82;99999.25;5032445;28;45528;-71
2022/09/28 03:49:29;;;;;;;;;0.00;0.00;;;;;16.88;81.13;99997.53;5025155;28;46063;-71
2022/09/28 03:51:54;;;;;;;;;0.33;0.00;;;;;16.92;80.72;99989.63;5029737;28;45519;-71
2022/09/28 03:54:20;;;;;;;;;0.00;0.00;;;;;16.89;80.54;99986.09;5044327;28;45618;-71
2022/09/28 03:56:45;;;;;;;;;1.00;0.00;;;;;16.85;80.39;99970.28;5029031;28;45495;-71
2022/09/28 03:59:11;;;;;;;;;0.00;0.00;;;;;16.86;80.65;99972.03;5030192;28;46239;-71
2022/09/28 04:01:36;;;;;;;;;0.00;0.00;;;;;16.86;80.50;99977.31;5032118;28;45549;-72
2022/09/28 04:04:02;;;;;;;;;0.00;0.00;;;;;16.92;80.69;99976.41;5028713;28;45449;-71
2022/09/28 04:06:27;;;;;;;;;0.67;0.00;;;;;16.84;80.44;99958.84;5029553;28;45425;-71
2022/09/28 04:08:53;;;;;;;;;1.00;0.00;;;;;16.76;80.03;99944.81;5032756;28;45491;-71
2022/09/28 04:11:18;;;;;;;;;0.00;0.00;;;;;16.84;80.24;99961.50;5030415;28;45395;-71
2022/09/28 04:13:47;;;;;;;;;0.00;0.00;;;;;16.78;80.84;99966.78;5028504;28;45837;-71
2022/09/28 04:16:13;;;;;;;;;0.00;0.00;;;;;16.88;80.39;99973.78;5030155;28;45639;-71
2022/09/28 04:18:38;;;;;;;;;0.00;0.00;;;;;16.91;80.31;99957.09;5029674;28;46291;-71
2022/09/28 04:21:06;;;;;;;;;1.00;0.00;;;;;16.99;80.06;99991.31;5026820;28;45848;-72
2022/09/28 04:23:34;;;;;;;;;0.00;0.00;;;;;16.96;79.62;99986.06;5032226;28;45337;-71
2022/09/28 04:26:01;;;;;;;;;0.33;0.00;;;;;16.73;79.13;99949.22;5029799;28;46230;-71
2022/09/28 04:31:15;;;;;;;;;0.00;0.00;;;;;16.99;78.44;99963.19;5028635;28;45488;-73
2022/09/28 04:33:41;;;;;;;;;0.00;0.00;;;;;16.97;78.43;99950.88;5028550;28;45497;-71
2022/09/28 04:36:08;;;;;;;;;1.00;0.00;;;;;16.90;78.88;99932.44;5030490;28;45506;-71
2022/09/28 04:38:33;;;;;;;;;0.00;0.00;;;;;16.95;78.76;99950.91;5029765;28;46896;-73
2022/09/28 04:40:59;;;;;;;;;0.00;0.00;;;;;16.95;78.85;99944.72;5029892;28;45458;-71
2022/09/28 04:43:25;;;;;;;;;0.00;0.00;;;;;16.90;78.54;99931.56;5027676;28;45529;-71
2022/09/28 04:45:50;;;;;;;;;2.00;2.00;;;;;16.93;77.78;99938.59;5028130;28;45633;-71
2022/09/28 04:48:16;;;;;;;;;0.00;0.00;;;;;16.92;78.52;99918.38;5030376;28;45603;-71
2022/09/28 04:50:41;;;;;;;;;2.00;0.00;;;;;16.99;78.15;99920.06;5030391;28;45545;-71
2022/09/28 04:53:07;;;;;;;;;0.33;0.00;;;;;16.98;78.47;99920.97;5023546;28;45492;-71
2022/09/28 04:55:32;;;;;;;;;0.00;0.00;;;;;17.03;78.40;99928.00;5026459;28;45441;-71
2022/09/28 04:58:02;;;;;;;;;0.00;0.00;;;;;16.97;78.50;99922.75;5028082;28;45420;-71
2022/09/28 05:00:32;;;;;;;;;0.00;0.00;;;;;16.94;78.39;99928.03;5029044;28;45700;-71
2022/09/28 05:02:58;;;;;;;;;0.00;0.00;;;;;16.92;78.44;99902.56;5028441;28;45585;-71
2022/09/28 05:05:23;;;;;;;;;0.00;0.00;;;;;16.93;78.52;99925.41;5027864;28;45512;-71
2022/09/28 05:07:49;;;;;;;;;0.33;0.00;;;;;16.85;78.96;99915.78;5027364;28;45838;-76
2022/09/28 05:10:15;;;;;;;;;0.00;0.00;;;;;16.86;78.97;99932.47;5025505;28;46286;-72
2022/09/28 05:12:40;;;;;;;;;1.00;0.33;;;;;16.73;78.81;99901.72;5025520;28;45616;-74
2022/09/28 05:15:06;;;;;;;;;0.00;0.00;;;;;16.39;79.16;99844.78;5029326;28;46216;-72
2022/09/28 05:17:31;;;;;;;;;1.00;0.00;;;;;16.80;79.46;99919.28;5030845;28;45486;-72
2022/09/28 05:19:57;;;;;;;;;0.00;0.00;;;;;16.73;79.12;99902.59;5028270;28;45561;-72
2022/09/28 05:22:23;;;;;;;;;0.33;0.00;;;;;16.77;79.27;99908.75;5023368;28;45535;-72
2022/09/28 05:24:49;;;;;;;;;0.67;0.00;;;;;16.86;79.44;99936.00;5032254;28;45929;-72
2022/09/28 05:27:14;;;;;;;;;0.00;0.00;;;;;16.81;79.42;99913.13;5031197;28;46425;-71
2022/09/28 05:29:40;;;;;;;;;2.00;1.00;;;;;16.77;79.40;99912.28;5030942;28;45541;-71
2022/09/28 05:32:05;;;;;;;;;0.33;0.33;;;;;16.77;79.57;99924.56;5029516;28;45614;-71
2022/09/28 05:34:31;;;;;;;;;0.00;0.00;;;;;16.76;79.48;99921.06;5028487;28;45399;-77
2022/09/28 05:36:56;;;;;;;;;0.00;0.00;;;;;16.83;79.45;99932.47;5029256;28;45513;-74
2022/09/28 05:39:22;;;;;;;;;1.00;0.00;;;;;16.82;79.53;99926.34;5027959;28;45446;-71
2022/09/28 05:41:48;;;;;;;;;0.00;0.00;;;;;16.86;79.57;99935.13;5030296;28;45367;-70
2022/09/28 05:44:13;;;;;;;;;0.00;0.00;;;;;16.73;79.76;99920.19;5031723;28;45923;-71
2022/09/28 05:46:39;;;;;;;;;0.67;0.67;;;;;16.75;79.61;99932.50;5035160;28;46667;-71
2022/09/28 05:49:04;;;;;;;;;1.00;0.00;;;;;16.76;79.79;99933.38;5036537;28;45399;-73
2022/09/28 05:51:30;;;;;;;;;0.00;0.00;;;;;16.81;79.59;99942.13;5036507;28;45636;-72
2022/09/28 05:53:56;;;;;;;;;0.00;0.00;;;;;16.69;79.65;99927.25;5036136;28;45568;-71
2022/09/28 05:56:22;;;;;;;;;0.00;0.00;;;;;16.71;79.96;99949.22;5035563;28;46148;-72
2022/09/28 05:58:47;;;;;;;;;1.00;0.00;;;;;16.71;79.86;99943.94;5036417;28;45461;-72
2022/09/28 06:01:13;;;;;;;;;0.00;0.00;;;;;16.72;79.88;99947.47;5035467;28;45492;-71
2022/09/28 06:03:38;;;;;;;;;0.00;0.00;;;;;16.68;79.47;99951.88;5036736;28;45305;-75
2022/09/28 06:06:04;;;;;;;;;0.00;0.00;;;;;16.68;79.75;99962.44;5036390;28;45605;-72
2022/09/28 06:08:31;;;;;;;;;0.00;0.00;;;;;16.68;79.91;99954.50;5036574;28;45533;-72
2022/09/28 06:11:00;;;;;;;;;0.00;0.00;;;;;16.75;79.61;99956.25;5036317;28;45517;-72
2022/09/28 06:13:30;;;;;;;;;0.00;0.00;;;;;16.69;79.58;99948.34;5035067;28;45985;-76
2022/09/28 06:15:56;;;;;;;;;1.00;1.00;;;;;16.74;79.63;99941.28;5041361;28;45954;-72
2022/09/28 06:18:22;;;;;;;;;0.00;0.00;;;;;16.67;79.56;99935.19;5035690;28;45519;-74
2022/09/28 06:20:47;;;;;;;;;4.00;4.00;;;;;16.75;79.77;99960.63;5035235;28;45678;-73
2022/09/28 06:23:13;;;;;;;;;3.67;3.67;;;;;16.76;80.00;99978.22;5037730;28;45408;-74
2022/09/28 06:25:39;;;;;;;;;1.00;1.00;;;;;16.70;79.89;99960.66;5033790;28;45947;-75
2022/09/28 06:28:14;;;;;;;;;0.00;0.00;;;;;16.68;80.16;99960.66;5034569;28;45806;-74
2022/09/28 06:30:41;;;;;;;;;0.00;0.00;;;;;16.76;79.94;99968.53;5034163;28;45704;-79
2022/09/28 06:33:11;;;;;;;;;1.00;0.67;;;;;16.79;79.79;99971.19;5034967;28;45518;-76
2022/09/28 06:35:37;;;;;;;;;8.33;8.00;;;;;16.78;80.01;99979.97;5034731;28;45563;-76
2022/09/28 06:38:03;;;;;;;;;8.00;8.00;;;;;16.72;79.70;99977.34;5035026;28;45442;-77
2022/09/28 06:40:29;;;;;;;;;0.33;0.33;;;;;16.81;78.94;99989.63;5033665;28;45512;-76
2022/09/28 06:43:00;;;;;;;;;0.00;0.00;;;;;16.83;78.65;99988.78;5009903;28;45333;-76
2022/09/28 06:45:27;;;;;;;;;1.00;0.00;;;;;16.75;78.03;99981.72;5052036;28;45652;-72
2022/09/28 06:47:54;;;;;;;;;1.00;1.00;;;;;16.81;78.11;99981.69;5054047;28;45378;-75
2022/09/28 06:50:20;;;;;;;;;0.00;0.00;;;;;16.86;77.40;99967.63;5044341;28;45480;-74
2022/09/28 06:52:49;;;;;;;;;1.00;0.00;;;;;16.97;77.78;99956.16;5056291;28;45672;-73
2022/09/28 06:55:15;;;;;;;;;2.00;0.00;;;;;17.17;76.74;99978.03;5057940;28;46725;-73
2022/09/28 06:57:40;;;;;;;;;2.00;0.67;;;;;17.25;76.22;99965.66;5057425;28;45511;-74
2022/09/28 07:00:06;;;;;;;;;0.00;0.00;;;;;17.29;75.83;99964.75;5073077;27;45357;-74
2022/09/28 07:02:32;;;;;;;;;1.67;1.00;;;;;17.31;75.57;99970.03;5058051;28;45453;-73
2022/09/28 07:04:57;;;;;;;;;4.00;1.00;;;;;17.18;75.58;99941.97;5057994;28;45590;-74
2022/09/28 07:07:23;;;;;;;;;1.00;1.00;;;;;17.29;75.24;99961.25;5056305;28;45471;-74
2022/09/28 07:09:53;;;;;;;;;1.67;1.00;;;;;17.41;75.50;99977.00;5057781;28;45455;-73
2022/09/28 07:12:22;;;;;;;;;3.00;2.00;;;;;17.42;75.59;99978.75;5058027;28;45671;-74
2022/09/28 07:14:49;;;;;;;;;1.00;1.00;;;;;17.33;75.55;99957.69;5058438;28;45326;-75
2022/09/28 07:17:15;;;;;;;;;2.00;1.67;;;;;17.36;75.51;99959.44;5057987;28;45349;-76
2022/09/28 07:19:40;;;;;;;;;2.00;1.67;;;;;17.37;75.41;99959.44;5053101;28;45438;-73
2022/09/28 07:22:06;;;;;;;;;1.33;0.00;;;;;17.47;75.40;99968.16;5056337;28;45818;-74
2022/09/28 07:24:34;;;;;;;;;1.00;0.00;;;;;17.32;73.39;99961.22;5058082;28;46710;-73
2022/09/28 07:27:00;;;;;;;;;1.67;0.00;;;;;17.45;74.54;99980.50;5057512;28;45512;-73
2022/09/28 07:29:27;;;;;;;;;1.00;1.00;;;;;17.48;73.78;99959.34;5057396;28;45413;-74
2022/09/28 07:31:53;;;;;;;;;1.00;0.00;;;;;17.58;73.59;99961.00;5072960;28;45460;-74
2022/09/28 07:34:22;;;;;;;;;1.00;0.00;;;;;17.61;73.22;99950.44;5073179;28;46432;-73
2022/09/28 07:36:47;;;;;;;;;0.00;0.00;;;;;17.64;73.42;99941.59;5058052;28;45354;-73
2022/09/28 07:39:13;;;;;;;;;1.00;1.00;;;;;17.66;73.14;99940.69;5058275;28;45539;-74
2022/09/28 07:41:40;;;;;;;;;1.00;0.00;;;;;17.70;73.03;99945.06;5073557;27;45752;-73
2022/09/28 07:44:05;;;;;;;;;0.00;0.00;;;;;17.69;73.20;99935.41;5056961;28;45532;-75
2022/09/28 07:46:33;;;;;;;;;2.00;1.00;;;;;17.65;73.41;99941.59;5057381;28;45436;-73
2022/09/28 07:48:58;;;;;;;;;1.00;1.00;;;;;17.67;73.88;99945.09;5073362;27;45477;-74
2022/09/28 07:51:24;;;;;;;;;2.00;0.67;;;;;17.71;74.06;99948.59;5053034;28;45842;-75
2022/09/28 07:53:52;;;;;;;;;1.00;0.00;;;;;17.67;74.18;99950.38;5047420;28;46557;-76
2022/09/28 07:56:19;;;;;;;;;0.00;0.00;;;;;17.63;74.16;99943.38;5057916;28;47167;-74
2022/09/28 07:58:45;;;;;;;;;1.00;1.00;;;;;17.70;73.95;99946.84;5057649;28;45903;-74
2022/09/28 08:01:14;;;;;;;;;0.00;0.00;;;;;17.79;73.99;99940.59;5057368;28;45437;-74
2022/09/28 08:03:43;;;;;;;;;1.00;0.00;;;;;17.85;73.74;99945.88;5056706;28;46455;-74
2022/09/28 08:06:11;;;;;;;;;1.00;0.67;;;;;17.65;73.74;99931.03;5057331;28;45499;-75
2022/09/28 08:08:43;;;;;;;;;1.00;0.33;;;;;17.64;73.76;99929.25;5057489;28;45464;-74
2022/09/28 08:11:11;;;;;;;;;0.67;0.67;;;;;17.76;73.82;99948.53;5057640;28;45544;-74
2022/09/28 08:13:37;;;;;;;;;0.67;0.00;;;;;17.72;73.39;99933.63;5057410;28;46213;-73
2022/09/28 08:16:07;;;;;;;;;1.67;0.33;;;;;17.80;73.30;99951.13;5057555;28;45486;-75
2022/09/28 08:18:38;;;;;;;;;0.00;0.00;;;;;17.66;73.11;99927.47;5056602;28;45405;-77
2022/09/28 08:23:48;;;;;;;;;0.67;0.67;;;;;17.82;71.40;99927.34;5056205;28;45753;-75
2022/09/28 08:26:15;;;;;;;;;0.00;0.00;;;;;17.77;71.38;99926.53;5055550;28;45506;-75
2022/09/28 08:28:42;;;;;;;;;0.00;0.00;;;;;17.87;71.52;99936.16;5056239;28;45576;-75
2022/09/28 08:31:08;;;;;;;;;0.00;0.00;;;;;17.73;71.27;99927.47;5058058;28;45512;-72
2022/09/28 08:33:34;;;;;;;;;0.33;0.33;;;;;17.86;71.19;99940.53;5042452;28;46502;-72
2022/09/28 08:36:01;;;;;;;;;0.33;0.33;;;;;17.76;70.89;99925.63;5023513;28;45503;-72
2022/09/28 08:38:28;;;;;;;;;0.00;0.00;;;;;17.75;70.36;99936.25;5029279;28;45529;-73
2022/09/28 08:40:59;;;;;;;;;0.00;0.00;;;;;17.91;70.74;99958.16;5048669;28;45565;-73
2022/09/28 08:43:44;;;;;;;;;0.67;0.33;;;;;17.95;70.37;99954.59;5047667;28;45506;-72
2022/09/28 08:46:12;;;;;;;;;0.00;0.00;;;;;17.66;69.52;99900.19;5047463;28;45378;-72
2022/09/28 08:49:03;;;;;;;;;0.00;0.00;;;;;17.91;69.79;99943.16;5027824;28;45583;-72
2022/09/28 08:51:44;;;;;;;;;2.00;0.67;;;;;17.89;69.36;99943.16;5010309;28;45569;-75
2022/09/28 08:54:31;;;;;;;;;0.67;0.33;;;;;18.05;69.37;99949.19;5037385;28;46077;-72
2022/09/28 08:57:13;;;;;;;;;1.33;0.33;;;;;17.98;68.09;99915.75;5038561;28;45217;-72
2022/09/28 08:59:45;;;;;;;;;4.33;3.33;;;;;18.19;68.63;99940.22;5038034;28;45479;-72
2022/09/28 09:02:30;;;;;;;;;2.67;2.67;;;;;18.21;68.76;99941.09;5038337;28;45316;-72
2022/09/28 09:04:57;;;;;;;;;1.33;0.67;;;;;18.24;68.69;99939.31;5020080;28;45631;-73
2022/09/28 09:07:39;;;;;;;;;3.00;2.00;;;;;18.30;68.21;99935.69;5020179;28;45498;-72
2022/09/28 09:10:27;;;;;;;;;2.67;2.67;;;;;18.34;68.77;99936.53;5038126;28;45468;-72
2022/09/28 09:13:18;;;;;;;;;1.00;0.67;;;;;18.36;68.44;99925.03;5037898;28;45608;-72
2022/09/28 09:15:54;;;;;;;;;0.67;0.67;;;;;18.28;67.12;99925.16;5018839;28;46981;-73
2022/09/28 09:18:35;;;;;;;;;0.00;0.00;;;;;18.35;67.72;99933.88;5045236;28;45333;-72
2022/09/28 09:21:14;;;;;;;;;1.33;1.00;;;;;18.52;67.66;99931.00;5046598;28;46103;-73
2022/09/28 09:24:02;;;;;;;;;1.00;0.67;;;;;18.45;66.95;99913.50;5046283;28;45517;-73
2022/09/28 09:26:38;;;;;;;;;3.67;1.00;;;;;18.50;67.00;99919.56;5044416;28;45506;-73
2022/09/28 09:29:15;;;;;;;;;0.00;0.00;;;;;18.58;66.36;99925.66;5025363;28;45386;-74
2022/09/28 09:32:02;;;;;;;;;0.67;0.67;;;;;18.59;65.97;99923.91;5045816;28;45478;-73
2022/09/28 09:34:43;;;;;;;;;0.00;0.00;;;;;18.62;66.23;99927.38;5040647;28;45349;-73
2022/09/28 09:37:26;;;;;;;;;0.00;0.00;;;;;18.56;65.83;99922.19;5045473;28;46606;-73
2022/09/28 09:40:01;;;;;;;;;0.00;0.00;;;;;18.47;65.42;99912.56;5045293;28;45573;-73
2022/09/28 09:42:54;;;;;;;;;0.00;0.00;;;;;18.61;65.14;99919.47;5045960;28;45355;-73
2022/09/28 09:45:29;;;;;;;;;0.00;0.00;;;;;18.65;64.73;99914.09;5047185;28;45568;-73
2022/09/28 09:48:02;;;;;;;;;0.33;0.00;;;;;18.62;65.32;99903.56;5035055;28;45595;-73
2022/09/28 09:50:34;;;;;;;;;0.00;0.00;;;;;18.65;64.02;99913.22;5054097;28;45244;-73
2022/09/28 09:53:15;;;;;;;;;0.33;0.33;;;;;18.71;64.27;99907.84;5050301;28;45852;-69
2022/09/28 09:55:44;;;;;;;;;0.33;0.33;;;;;18.62;64.47;99900.03;5040920;28;46098;-70
2022/09/28 09:58:25;;;;;;;;;1.67;0.67;;;;;18.69;63.88;99904.34;5044033;28;45668;-70
2022/09/28 10:00:53;;;;;;;;;0.00;0.00;;;;;18.63;64.31;99900.00;5026839;28;45443;-70
2022/09/28 10:03:25;;;;;;;;;0.33;0.33;;;;;18.74;63.86;99907.81;5046309;28;45508;-70
2022/09/28 10:06:14;;;;;;;;;0.00;0.00;;;;;18.77;63.70;99920.13;5043238;28;45269;-70
2022/09/28 10:08:52;;;;;;;;;0.00;0.00;;;;;18.78;64.06;99912.19;5035332;28;45589;-71
2022/09/28 10:11:27;;;;;;;;;0.00;0.00;;;;;18.81;64.03;99903.34;5042979;28;45580;-70
2022/09/28 10:13:52;;;;;;;;;0.33;0.33;;;;;18.76;63.92;99906.03;5018609;28;45476;-70
2022/09/28 10:16:18;;;;;;;;;0.67;0.00;;;;;18.61;63.77;99887.72;5036518;28;45697;-69
2022/09/28 10:18:44;;;;;;;;;0.67;0.67;;;;;18.66;64.21;99889.41;5036887;28;46472;-70
2022/09/28 10:21:15;;;;;;;;;2.00;1.00;;;;;18.80;63.59;99891.00;5018881;28;45442;-70
2022/09/28 10:23:42;;;;;;;;;0.00;0.00;;;;;18.83;64.09;99860.09;5036258;28;45450;-69
2022/09/28 10:26:22;;;;;;;;;0.00;0.00;;;;;19.24;63.44;99892.13;5036187;28;45319;-70
2022/09/28 10:28:55;;;;;;;;;3.00;3.00;;;;;19.45;62.17;99897.03;5036085;28;45585;-69
2022/09/28 10:31:35;;;;;;;;;3.67;1.00;;;;;19.65;62.67;99895.84;5049440;28;45312;-69
2022/09/28 10:34:02;;;;;;;;;1.00;1.00;;;;;19.65;62.50;99866.69;5057060;28;45572;-70
2022/09/28 10:36:28;;;;;;;;;0.00;0.00;;;;;19.72;61.47;99863.06;5057243;28;45391;-69
2022/09/28 10:38:54;;;;;;;;;0.33;0.00;;;;;19.82;61.87;99866.44;5056569;28;47512;-69
2022/09/28 10:41:21;;;;;;;;;1.33;1.00;;;;;19.81;61.46;99873.47;5056852;28;45310;-70
2022/09/28 10:44:04;;;;;;;;;2.00;2.00;;;;;19.72;61.89;99878.09;5055419;28;45267;-70
2022/09/28 10:46:32;;;;;;;;;1.00;0.00;;;;;19.25;62.04;99803.81;5056539;28;45310;-70
2022/09/28 10:49:06;;;;;;;;;0.00;0.00;;;;;19.58;61.38;99867.72;5055583;28;45490;-69
2022/09/28 10:51:46;;;;;;;;;0.67;0.00;;;;;19.48;62.04;99859.06;5056480;28;45299;-70
2022/09/28 10:54:17;;;;;;;;;0.67;0.00;;;;;19.60;60.64;99856.19;5055190;28;45628;-70
2022/09/28 10:56:44;;;;;;;;;14.67;14.67;;;;;19.59;61.17;99842.94;5056294;28;45385;-69
2022/09/28 10:59:29;;;;;;;;;1.00;0.00;;;;;19.78;60.97;99856.78;5056551;28;45957;-70
2022/09/28 11:01:59;;;;;;;;;0.00;0.00;;;;;19.78;59.69;99846.19;5055590;28;45516;-70
2022/09/28 11:04:39;;;;;;;;;0.67;0.67;;;;;19.59;60.70;99841.16;5056659;28;45474;-70
2022/09/28 11:07:17;;;;;;;;;0.00;0.00;;;;;19.60;60.87;99850.88;5057269;28;45418;-69
2022/09/28 11:09:47;;;;;;;;;0.00;0.00;;;;;19.54;60.96;99863.38;5056358;28;46030;-69
2022/09/28 11:12:17;;;;;;;;;0.00;0.00;;;;;19.59;61.23;99872.97;5056520;28;45418;-70
2022/09/28 11:14:43;;;;;;;;;0.00;0.00;;;;;19.47;62.64;99875.84;5072337;27;45238;-70
2022/09/28 11:17:27;;;;;;;;;0.00;0.00;;;;;19.38;63.52;99873.38;5072783;28;45350;-70
2022/09/28 11:19:55;;;;;;;;;0.00;0.00;;;;;19.16;63.89;99841.03;5056366;28;46143;-70
2022/09/28 11:22:25;;;;;;;;;0.00;0.00;;;;;19.21;65.22;99860.38;5055049;28;45378;-69
2022/09/28 11:24:51;;;;;;;;;4.00;3.00;;;;;19.25;65.61;99868.25;5056357;28;45314;-70
2022/09/28 11:27:25;;;;;;;;;0.00;0.00;;;;;18.79;65.73;99781.63;5055885;28;45504;-69
2022/09/28 11:29:58;;;;;;;;;0.00;0.00;;;;;19.19;65.95;99862.19;5055958;28;46480;-69
2022/09/28 11:32:29;;;;;;;;;0.00;0.00;;;;;19.19;66.15;99875.44;5055075;28;45478;-70
2022/09/28 11:34:58;;;;;;;;;0.00;0.00;;;;;19.12;66.83;99863.16;5056403;28;45346;-69
2022/09/28 11:37:34;;;;;;;;;2.00;0.00;;;;;19.18;67.13;99871.91;5057823;28;45597;-69
2022/09/28 11:40:02;;;;;;;;;0.00;0.00;;;;;19.15;67.10;99873.72;5059467;28;45396;-69
2022/09/28 11:42:49;;;;;;;;;0.00;0.00;;;;;19.13;68.13;99883.47;5059558;28;45339;-69
2022/09/28 11:45:50;;;;;;;;;0.67;0.00;;;;;19.13;68.63;99871.09;5059037;28;45285;-69
2022/09/28 11:48:24;;;;;;;;;0.00;0.00;;;;;19.11;68.45;99859.66;5058093;28;45581;-69
2022/09/28 11:51:01;;;;;;;;;0.00;0.00;;;;;19.22;68.43;99878.91;5057819;28;46321;-70
2022/09/28 11:53:39;;;;;;;;;0.00;0.00;;;;;19.07;67.91;99848.22;5058219;28;45244;-69